createdAt,value
2017-07-16T00:00:25.297Z,0
2017-07-16T00:00:51.465Z,0
2017-07-16T00:01:17.641Z,0
2017-07-16T00:01:43.799Z,0
2017-07-16T00:02:09.963Z,0
2017-07-16T00:02:36.127Z,0
2017-07-16T00:03:02.298Z,0
2017-07-16T00:03:28.474Z,0
2017-07-16T00:03:54.629Z,0
2017-07-16T00:04:20.798Z,0
2017-07-16T00:04:46.972Z,0
2017-07-16T00:05:13.130Z,0
2017-07-16T00:05:39.294Z,0
2017-07-16T00:06:05.470Z,0
2017-07-16T00:06:31.633Z,0
2017-07-16T00:06:57.791Z,0
2017-07-16T00:07:23.968Z,0
2017-07-16T00:07:50.133Z,0
2017-07-16T00:08:16.332Z,0
2017-07-16T00:08:42.490Z,0
2017-07-16T00:09:08.683Z,0
2017-07-16T00:09:34.861Z,0
2017-07-16T00:10:01.021Z,0
2017-07-16T00:10:27.176Z,0
2017-07-16T00:10:53.352Z,0
2017-07-16T00:11:19.516Z,0
2017-07-16T00:11:45.674Z,0
2017-07-16T00:12:11.848Z,0
2017-07-16T00:12:38.018Z,0
2017-07-16T00:13:04.178Z,0
2017-07-16T00:13:30.351Z,0
2017-07-16T00:13:56.527Z,0
2017-07-16T00:14:22.683Z,0
2017-07-16T00:14:48.850Z,0
2017-07-16T00:15:15.025Z,0
2017-07-16T00:15:41.186Z,0
2017-07-16T00:16:07.355Z,0
2017-07-16T00:16:33.525Z,0
2017-07-16T00:16:59.687Z,0
2017-07-16T00:17:25.844Z,0
2017-07-16T00:17:52.021Z,0
2017-07-16T00:18:18.184Z,0
2017-07-16T00:18:44.342Z,0
2017-07-16T00:19:10.518Z,0
2017-07-16T00:19:36.680Z,0
2017-07-16T00:20:02.855Z,0
2017-07-16T00:20:29.014Z,0
2017-07-16T00:20:55.172Z,0
2017-07-16T00:21:21.350Z,0
2017-07-16T00:21:47.515Z,0
2017-07-16T00:22:13.673Z,0
2017-07-16T00:22:39.849Z,0
2017-07-16T00:23:06.019Z,0
2017-07-16T00:23:32.175Z,0
2017-07-16T00:23:58.348Z,0
2017-07-16T00:24:24.524Z,0
2017-07-16T00:24:50.685Z,0
2017-07-16T00:25:16.850Z,0
2017-07-16T00:25:43.006Z,0
2017-07-16T00:26:09.181Z,0
2017-07-16T00:26:35.350Z,0
2017-07-16T00:27:01.507Z,0
2017-07-16T00:27:27.678Z,0
2017-07-16T00:27:53.854Z,0
2017-07-16T00:28:20.008Z,0
2017-07-16T00:28:46.174Z,0
2017-07-16T00:29:12.347Z,0
2017-07-16T00:29:38.505Z,0
2017-07-16T00:30:04.669Z,0
2017-07-16T00:30:30.834Z,0
2017-07-16T00:30:57.004Z,0
2017-07-16T00:31:23.178Z,0
2017-07-16T00:31:49.334Z,0
2017-07-16T00:32:15.501Z,0
2017-07-16T00:32:41.677Z,0
2017-07-16T00:33:07.836Z,0
2017-07-16T00:33:33.998Z,0
2017-07-16T00:34:00.171Z,0
2017-07-16T00:34:26.333Z,0
2017-07-16T00:34:52.491Z,0
2017-07-16T00:35:18.666Z,0
2017-07-16T00:35:44.828Z,0
2017-07-16T00:36:10.987Z,0
2017-07-16T00:36:37.162Z,0
2017-07-16T00:37:03.330Z,0
2017-07-16T00:37:29.488Z,0
2017-07-16T00:37:55.657Z,0
2017-07-16T00:38:21.831Z,0
2017-07-16T00:38:47.986Z,0
2017-07-16T00:39:14.154Z,0
2017-07-16T00:39:40.326Z,0
2017-07-16T00:40:06.485Z,0
2017-07-16T00:40:32.648Z,0
2017-07-16T00:40:58.821Z,0
2017-07-16T00:41:24.983Z,0
2017-07-16T00:41:51.156Z,0
2017-07-16T00:42:17.312Z,0
2017-07-16T00:42:43.510Z,0
2017-07-16T00:43:09.685Z,0
2017-07-16T00:43:35.845Z,0
2017-07-16T00:44:02.009Z,0
2017-07-16T00:44:28.184Z,0
2017-07-16T00:44:54.345Z,0
2017-07-16T00:45:20.501Z,0
2017-07-16T00:45:46.681Z,0
2017-07-16T00:46:12.849Z,0
2017-07-16T00:46:39.006Z,0
2017-07-16T00:47:05.183Z,0
2017-07-16T00:47:31.341Z,0
2017-07-16T00:47:57.517Z,0
2017-07-16T00:48:23.679Z,0
2017-07-16T00:48:49.839Z,0
2017-07-16T00:49:16.016Z,0
2017-07-16T00:49:42.180Z,0
2017-07-16T00:50:08.338Z,0
2017-07-16T00:50:34.512Z,0
2017-07-16T00:51:00.680Z,0
2017-07-16T00:51:26.836Z,0
2017-07-16T00:51:53.008Z,0
2017-07-16T00:52:19.184Z,0
2017-07-16T00:52:45.342Z,0
2017-07-16T00:53:11.507Z,0
2017-07-16T00:53:37.665Z,0
2017-07-16T00:54:03.839Z,0
2017-07-16T00:54:30.007Z,0
2017-07-16T00:54:56.165Z,0
2017-07-16T00:55:22.336Z,0
2017-07-16T00:55:48.510Z,0
2017-07-16T00:56:14.664Z,0
2017-07-16T00:56:40.833Z,0
2017-07-16T00:57:07.009Z,0
2017-07-16T00:57:33.168Z,0
2017-07-16T00:57:59.332Z,0
2017-07-16T00:58:25.496Z,0
2017-07-16T00:58:51.666Z,0
2017-07-16T00:59:17.842Z,0
2017-07-16T00:59:44.000Z,0
2017-07-16T01:00:10.167Z,0
2017-07-16T01:00:36.341Z,0
2017-07-16T01:01:02.501Z,0
2017-07-16T01:01:28.663Z,0
2017-07-16T01:01:54.838Z,0
2017-07-16T01:02:20.998Z,0
2017-07-16T01:02:47.157Z,0
2017-07-16T01:03:13.334Z,0
2017-07-16T01:03:39.497Z,0
2017-07-16T01:04:05.667Z,0
2017-07-16T01:04:31.827Z,0
2017-07-16T01:04:57.992Z,0
2017-07-16T01:05:24.166Z,0
2017-07-16T01:05:50.325Z,0
2017-07-16T01:06:16.487Z,0
2017-07-16T01:06:42.666Z,0
2017-07-16T01:07:08.826Z,0
2017-07-16T01:07:34.984Z,0
2017-07-16T01:08:01.161Z,0
2017-07-16T01:08:27.329Z,0
2017-07-16T01:08:53.488Z,0
2017-07-16T01:09:19.660Z,0
2017-07-16T01:09:45.819Z,0
2017-07-16T01:10:11.996Z,0
2017-07-16T01:10:38.161Z,0
2017-07-16T01:11:04.318Z,0
2017-07-16T01:11:30.493Z,0
2017-07-16T01:11:56.662Z,0
2017-07-16T01:12:22.818Z,0
2017-07-16T01:12:48.989Z,0
2017-07-16T01:13:15.165Z,0
2017-07-16T01:13:41.319Z,0
2017-07-16T01:14:07.484Z,0
2017-07-16T01:14:33.657Z,0
2017-07-16T01:14:59.815Z,0
2017-07-16T01:15:26.025Z,0
2017-07-16T01:15:52.145Z,0
2017-07-16T01:16:18.315Z,0
2017-07-16T01:16:44.489Z,0
2017-07-16T01:17:10.645Z,0
2017-07-16T01:17:36.815Z,0
2017-07-16T01:18:02.989Z,0
2017-07-16T01:18:29.150Z,0
2017-07-16T01:18:55.315Z,0
2017-07-16T01:19:21.491Z,0
2017-07-16T01:19:47.654Z,0
2017-07-16T01:20:13.810Z,0
2017-07-16T01:20:39.989Z,0
2017-07-16T01:21:06.153Z,0
2017-07-16T01:21:32.311Z,0
2017-07-16T01:21:58.486Z,0
2017-07-16T01:22:24.653Z,0
2017-07-16T01:22:50.811Z,0
2017-07-16T01:23:16.979Z,0
2017-07-16T01:23:43.161Z,0
2017-07-16T01:24:09.311Z,0
2017-07-16T01:24:35.476Z,0
2017-07-16T01:25:01.650Z,0
2017-07-16T01:25:27.811Z,0
2017-07-16T01:25:53.971Z,0
2017-07-16T01:26:20.136Z,0
2017-07-16T01:26:46.310Z,0
2017-07-16T01:27:12.511Z,0
2017-07-16T01:27:38.667Z,0
2017-07-16T01:28:04.835Z,0
2017-07-16T01:28:31.009Z,0
2017-07-16T01:28:57.169Z,0
2017-07-16T01:29:23.334Z,0
2017-07-16T01:29:49.510Z,0
2017-07-16T01:30:15.675Z,0
2017-07-16T01:30:41.863Z,0
2017-07-16T01:31:08.045Z,0
2017-07-16T01:31:34.204Z,0
2017-07-16T01:32:00.376Z,0
2017-07-16T01:32:26.535Z,0
2017-07-16T01:32:52.702Z,0
2017-07-16T01:33:18.910Z,0
2017-07-16T01:33:45.076Z,0
2017-07-16T01:34:11.232Z,0
2017-07-16T01:34:37.409Z,0
2017-07-16T01:35:03.577Z,0
2017-07-16T01:35:29.732Z,0
2017-07-16T01:35:55.906Z,0
2017-07-16T01:36:22.079Z,0
2017-07-16T01:36:48.231Z,0
2017-07-16T01:37:14.401Z,0
2017-07-16T01:37:40.555Z,0
2017-07-16T01:38:06.733Z,0
2017-07-16T01:38:32.897Z,0
2017-07-16T01:38:59.055Z,0
2017-07-16T01:39:25.228Z,0
2017-07-16T01:39:51.398Z,0
2017-07-16T01:40:17.553Z,0
2017-07-16T01:40:43.725Z,0
2017-07-16T01:41:09.899Z,0
2017-07-16T01:41:36.054Z,0
2017-07-16T01:42:02.222Z,0
2017-07-16T01:42:28.397Z,0
2017-07-16T01:42:54.552Z,0
2017-07-16T01:43:20.749Z,0
2017-07-16T01:43:46.880Z,0
2017-07-16T01:44:13.051Z,0
2017-07-16T01:44:39.223Z,0
2017-07-16T01:45:05.379Z,0
2017-07-16T01:45:31.575Z,0
2017-07-16T01:45:57.721Z,0
2017-07-16T01:46:23.879Z,0
2017-07-16T01:46:50.044Z,0
2017-07-16T01:47:16.218Z,0
2017-07-16T01:47:42.380Z,0
2017-07-16T01:48:08.539Z,0
2017-07-16T01:48:34.738Z,0
2017-07-16T01:49:00.909Z,0
2017-07-16T01:49:27.081Z,0
2017-07-16T01:49:53.239Z,0
2017-07-16T01:50:19.405Z,0
2017-07-16T01:50:45.580Z,0
2017-07-16T01:51:11.742Z,0
2017-07-16T01:51:37.899Z,0
2017-07-16T01:52:04.079Z,0
2017-07-16T01:52:30.244Z,0
2017-07-16T01:52:56.401Z,0
2017-07-16T01:53:22.578Z,0
2017-07-16T01:53:48.745Z,0
2017-07-16T01:54:14.911Z,0
2017-07-16T01:54:41.073Z,0
2017-07-16T01:55:07.231Z,0
2017-07-16T01:55:33.407Z,0
2017-07-16T01:55:59.574Z,0
2017-07-16T01:56:25.731Z,0
2017-07-16T01:56:51.902Z,0
2017-07-16T01:57:18.071Z,0
2017-07-16T01:57:44.229Z,0
2017-07-16T01:58:10.398Z,0
2017-07-16T01:58:36.573Z,0
2017-07-16T01:59:02.732Z,0
2017-07-16T01:59:28.899Z,0
2017-07-16T01:59:55.061Z,0
2017-07-16T02:00:21.387Z,0
2017-07-16T02:00:47.554Z,0
2017-07-16T02:01:13.712Z,0
2017-07-16T02:01:39.883Z,0
2017-07-16T02:02:06.058Z,0
2017-07-16T02:02:32.214Z,0
2017-07-16T02:02:58.381Z,0
2017-07-16T02:03:24.555Z,0
2017-07-16T02:03:50.715Z,0
2017-07-16T02:04:16.876Z,0
2017-07-16T02:04:43.050Z,0
2017-07-16T02:05:09.212Z,0
2017-07-16T02:05:35.372Z,0
2017-07-16T02:06:01.549Z,0
2017-07-16T02:06:27.712Z,0
2017-07-16T02:06:53.868Z,0
2017-07-16T02:07:20.043Z,0
2017-07-16T02:07:46.243Z,0
2017-07-16T02:08:12.402Z,0
2017-07-16T02:08:38.569Z,0
2017-07-16T02:09:04.743Z,0
2017-07-16T02:09:30.900Z,0
2017-07-16T02:09:57.067Z,0
2017-07-16T02:10:23.242Z,0
2017-07-16T02:10:49.437Z,0
2017-07-16T02:11:15.619Z,0
2017-07-16T02:11:41.811Z,0
2017-07-16T02:12:07.991Z,0
2017-07-16T02:12:34.171Z,0
2017-07-16T02:13:00.363Z,0
2017-07-16T02:13:26.547Z,0
2017-07-16T02:13:52.725Z,0
2017-07-16T02:14:18.920Z,0
2017-07-16T02:14:45.105Z,0
2017-07-16T02:15:11.288Z,0
2017-07-16T02:15:37.470Z,0
2017-07-16T02:16:03.664Z,0
2017-07-16T02:16:29.845Z,0
2017-07-16T02:16:56.030Z,0
2017-07-16T02:17:22.211Z,0
2017-07-16T02:17:48.404Z,0
2017-07-16T02:18:14.591Z,0
2017-07-16T02:18:40.772Z,0
2017-07-16T02:19:06.965Z,0
2017-07-16T02:19:33.155Z,0
2017-07-16T02:19:59.329Z,0
2017-07-16T02:20:25.516Z,0
2017-07-16T02:20:51.712Z,0
2017-07-16T02:21:17.887Z,0
2017-07-16T02:21:44.071Z,0
2017-07-16T02:22:10.254Z,0
2017-07-16T02:22:36.449Z,0
2017-07-16T02:23:02.639Z,0
2017-07-16T02:23:28.814Z,0
2017-07-16T02:23:54.999Z,0
2017-07-16T02:24:21.192Z,0
2017-07-16T02:24:47.371Z,0
2017-07-16T02:25:13.555Z,0
2017-07-16T02:25:39.747Z,0
2017-07-16T02:26:05.927Z,0
2017-07-16T02:26:32.104Z,0
2017-07-16T02:26:58.299Z,0
2017-07-16T02:27:24.484Z,0
2017-07-16T02:27:50.678Z,0
2017-07-16T02:28:16.852Z,0
2017-07-16T02:28:43.037Z,0
2017-07-16T02:29:09.229Z,0
2017-07-16T02:29:35.411Z,0
2017-07-16T02:30:01.591Z,0
2017-07-16T02:30:27.785Z,0
2017-07-16T02:30:53.966Z,0
2017-07-16T02:31:20.143Z,0
2017-07-16T02:31:46.338Z,0
2017-07-16T02:32:12.526Z,0
2017-07-16T02:32:38.703Z,0
2017-07-16T02:33:04.892Z,0
2017-07-16T02:33:31.071Z,0
2017-07-16T02:33:57.267Z,0
2017-07-16T02:34:23.454Z,0
2017-07-16T02:34:49.631Z,0
2017-07-16T02:35:15.822Z,0
2017-07-16T02:35:42.008Z,0
2017-07-16T02:36:08.189Z,0
2017-07-16T02:36:34.379Z,0
2017-07-16T02:37:00.575Z,0
2017-07-16T02:37:26.749Z,0
2017-07-16T02:37:52.973Z,0
2017-07-16T02:38:19.168Z,0
2017-07-16T02:38:45.342Z,0
2017-07-16T02:39:11.528Z,0
2017-07-16T02:39:37.710Z,0
2017-07-16T02:40:03.904Z,0
2017-07-16T02:40:30.093Z,0
2017-07-16T02:40:56.264Z,0
2017-07-16T02:41:22.450Z,0
2017-07-16T02:41:48.646Z,0
2017-07-16T02:42:14.821Z,0
2017-07-16T02:42:41.007Z,0
2017-07-16T02:43:07.200Z,0
2017-07-16T02:43:33.382Z,0
2017-07-16T02:43:59.560Z,0
2017-07-16T02:44:25.751Z,0
2017-07-16T02:44:51.937Z,0
2017-07-16T02:45:18.161Z,0
2017-07-16T02:45:44.340Z,0
2017-07-16T02:46:10.555Z,0
2017-07-16T02:46:36.822Z,0
2017-07-16T02:47:03.001Z,0
2017-07-16T02:47:29.181Z,0
2017-07-16T02:47:55.374Z,0
2017-07-16T02:48:21.559Z,0
2017-07-16T02:48:47.738Z,0
2017-07-16T02:49:13.932Z,0
2017-07-16T02:49:40.118Z,0
2017-07-16T02:50:06.300Z,0
2017-07-16T02:50:32.491Z,0
2017-07-16T02:50:58.683Z,0
2017-07-16T02:51:24.862Z,0
2017-07-16T02:51:51.048Z,0
2017-07-16T02:52:17.251Z,0
2017-07-16T02:52:43.432Z,4
2017-07-16T02:53:09.653Z,4
2017-07-16T02:53:35.845Z,4
2017-07-16T02:54:02.021Z,4
2017-07-16T02:54:28.201Z,4
2017-07-16T02:54:54.398Z,4
2017-07-16T02:55:20.584Z,4
2017-07-16T02:55:46.771Z,4
2017-07-16T02:56:12.951Z,4
2017-07-16T02:56:39.133Z,4
2017-07-16T02:57:05.325Z,4
2017-07-16T02:57:31.503Z,4
2017-07-16T02:57:57.681Z,0
2017-07-16T02:58:23.915Z,0
2017-07-16T02:58:50.063Z,4
2017-07-16T02:59:16.240Z,4
2017-07-16T02:59:42.435Z,4
2017-07-16T03:00:08.622Z,4
2017-07-16T03:00:34.802Z,8
2017-07-16T03:01:00.996Z,8
2017-07-16T03:01:27.207Z,4
2017-07-16T03:01:53.407Z,4
2017-07-16T03:02:19.589Z,4
2017-07-16T03:02:45.767Z,8
2017-07-16T03:03:11.959Z,8
2017-07-16T03:03:38.150Z,8
2017-07-16T03:04:04.326Z,8
2017-07-16T03:04:30.551Z,8
2017-07-16T03:04:56.743Z,8
2017-07-16T03:05:22.923Z,12
2017-07-16T03:05:49.108Z,8
2017-07-16T03:06:15.301Z,12
2017-07-16T03:06:41.481Z,12
2017-07-16T03:07:07.673Z,12
2017-07-16T03:07:33.849Z,16
2017-07-16T03:08:00.038Z,16
2017-07-16T03:08:26.233Z,16
2017-07-16T03:08:52.528Z,16
2017-07-16T03:09:18.662Z,20
2017-07-16T03:09:44.859Z,20
2017-07-16T03:10:11.058Z,20
2017-07-16T03:10:37.241Z,20
2017-07-16T03:11:03.511Z,24
2017-07-16T03:11:29.689Z,24
2017-07-16T03:11:55.870Z,28
2017-07-16T03:12:22.078Z,24
2017-07-16T03:12:48.267Z,28
2017-07-16T03:13:14.512Z,28
2017-07-16T03:13:40.713Z,32
2017-07-16T03:14:07.000Z,32
2017-07-16T03:14:33.180Z,36
2017-07-16T03:14:59.366Z,36
2017-07-16T03:15:25.554Z,32
2017-07-16T03:15:51.800Z,36
2017-07-16T03:16:18.015Z,36
2017-07-16T03:16:44.189Z,40
2017-07-16T03:17:10.473Z,40
2017-07-16T03:17:36.714Z,44
2017-07-16T03:18:02.925Z,44
2017-07-16T03:18:29.154Z,48
2017-07-16T03:18:55.373Z,48
2017-07-16T03:19:21.632Z,48
2017-07-16T03:19:47.850Z,52
2017-07-16T03:20:14.024Z,52
2017-07-16T03:20:40.216Z,52
2017-07-16T03:21:06.439Z,56
2017-07-16T03:21:32.618Z,60
2017-07-16T03:21:58.815Z,64
2017-07-16T03:22:25.005Z,64
2017-07-16T03:22:51.179Z,72
2017-07-16T03:23:17.369Z,76
2017-07-16T03:23:43.548Z,80
2017-07-16T03:24:09.743Z,84
2017-07-16T03:24:35.930Z,92
2017-07-16T03:25:02.110Z,92
2017-07-16T03:25:28.299Z,100
2017-07-16T03:25:54.494Z,100
2017-07-16T03:26:20.668Z,108
2017-07-16T03:26:46.859Z,108
2017-07-16T03:27:13.052Z,112
2017-07-16T03:27:39.229Z,120
2017-07-16T03:28:05.416Z,120
2017-07-16T03:28:31.607Z,124
2017-07-16T03:28:57.790Z,124
2017-07-16T03:29:23.986Z,128
2017-07-16T03:29:50.161Z,132
2017-07-16T03:30:16.376Z,136
2017-07-16T03:30:42.572Z,140
2017-07-16T03:31:08.750Z,144
2017-07-16T03:31:34.937Z,148
2017-07-16T03:32:01.130Z,152
2017-07-16T03:32:27.314Z,156
2017-07-16T03:32:53.491Z,164
2017-07-16T03:33:19.690Z,164
2017-07-16T03:33:45.868Z,172
2017-07-16T03:34:12.077Z,176
2017-07-16T03:34:38.273Z,184
2017-07-16T03:35:04.460Z,188
2017-07-16T03:35:30.640Z,196
2017-07-16T03:35:56.830Z,200
2017-07-16T03:36:23.023Z,204
2017-07-16T03:36:49.197Z,212
2017-07-16T03:37:15.382Z,216
2017-07-16T03:37:41.573Z,224
2017-07-16T03:38:07.748Z,224
2017-07-16T03:38:33.935Z,232
2017-07-16T03:39:00.128Z,236
2017-07-16T03:39:26.311Z,240
2017-07-16T03:39:52.488Z,248
2017-07-16T03:40:18.679Z,252
2017-07-16T03:40:44.868Z,252
2017-07-16T03:41:11.093Z,256
2017-07-16T03:41:37.272Z,260
2017-07-16T03:42:03.456Z,264
2017-07-16T03:42:29.650Z,264
2017-07-16T03:42:55.828Z,272
2017-07-16T03:43:22.010Z,280
2017-07-16T03:43:48.207Z,284
2017-07-16T03:44:14.394Z,296
2017-07-16T03:44:40.570Z,304
2017-07-16T03:45:06.800Z,312
2017-07-16T03:45:32.987Z,324
2017-07-16T03:45:59.175Z,336
2017-07-16T03:46:25.353Z,348
2017-07-16T03:46:51.531Z,356
2017-07-16T03:47:17.726Z,368
2017-07-16T03:47:43.911Z,376
2017-07-16T03:48:10.089Z,388
2017-07-16T03:48:36.280Z,396
2017-07-16T03:49:02.505Z,408
2017-07-16T03:49:28.710Z,412
2017-07-16T03:49:54.903Z,424
2017-07-16T03:50:21.094Z,432
2017-07-16T03:50:47.271Z,444
2017-07-16T03:51:13.456Z,456
2017-07-16T03:51:39.640Z,472
2017-07-16T03:52:05.834Z,484
2017-07-16T03:52:32.023Z,504
2017-07-16T03:52:58.200Z,524
2017-07-16T03:53:24.393Z,540
2017-07-16T03:53:50.585Z,560
2017-07-16T03:54:16.762Z,572
2017-07-16T03:54:42.947Z,592
2017-07-16T03:55:09.141Z,600
2017-07-16T03:55:35.319Z,608
2017-07-16T03:56:01.504Z,620
2017-07-16T03:56:27.695Z,624
2017-07-16T03:56:53.909Z,632
2017-07-16T03:57:20.103Z,636
2017-07-16T03:57:46.277Z,640
2017-07-16T03:58:12.461Z,640
2017-07-16T03:58:38.655Z,640
2017-07-16T03:59:04.830Z,640
2017-07-16T03:59:31.017Z,636
2017-07-16T03:59:57.207Z,632
2017-07-16T04:00:23.388Z,628
2017-07-16T04:00:49.566Z,632
2017-07-16T04:01:15.764Z,632
2017-07-16T04:01:41.945Z,632
2017-07-16T04:02:08.123Z,640
2017-07-16T04:02:34.318Z,648
2017-07-16T04:03:00.501Z,648
2017-07-16T04:03:26.694Z,660
2017-07-16T04:03:52.873Z,664
2017-07-16T04:04:19.054Z,676
2017-07-16T04:04:45.249Z,684
2017-07-16T04:05:11.434Z,696
2017-07-16T04:05:37.612Z,708
2017-07-16T04:06:03.808Z,716
2017-07-16T04:06:29.995Z,728
2017-07-16T04:06:56.174Z,744
2017-07-16T04:07:22.366Z,756
2017-07-16T04:07:48.559Z,776
2017-07-16T04:08:14.737Z,792
2017-07-16T04:08:40.923Z,808
2017-07-16T04:09:07.103Z,824
2017-07-16T04:09:33.293Z,844
2017-07-16T04:09:59.481Z,860
2017-07-16T04:10:25.665Z,876
2017-07-16T04:10:51.855Z,888
2017-07-16T04:11:18.046Z,900
2017-07-16T04:11:44.225Z,908
2017-07-16T04:12:10.414Z,916
2017-07-16T04:12:36.641Z,924
2017-07-16T04:13:02.817Z,940
2017-07-16T04:13:29.001Z,952
2017-07-16T04:13:55.184Z,964
2017-07-16T04:14:21.380Z,976
2017-07-16T04:14:47.566Z,984
2017-07-16T04:15:13.772Z,988
2017-07-16T04:15:39.959Z,996
2017-07-16T04:16:06.147Z,996
2017-07-16T04:16:32.327Z,996
2017-07-16T04:16:58.513Z,996
2017-07-16T04:17:24.705Z,1000
2017-07-16T04:17:50.885Z,1008
2017-07-16T04:18:17.063Z,1020
2017-07-16T04:18:43.265Z,1036
2017-07-16T04:19:09.446Z,1052
2017-07-16T04:19:35.627Z,1072
2017-07-16T04:20:01.826Z,1092
2017-07-16T04:20:28.075Z,1112
2017-07-16T04:20:54.247Z,1132
2017-07-16T04:21:20.439Z,1152
2017-07-16T04:21:46.631Z,1172
2017-07-16T04:22:12.807Z,1196
2017-07-16T04:22:38.993Z,1224
2017-07-16T04:23:05.183Z,1252
2017-07-16T04:23:31.361Z,1280
2017-07-16T04:23:57.545Z,1312
2017-07-16T04:24:23.737Z,1336
2017-07-16T04:24:49.916Z,1360
2017-07-16T04:25:16.140Z,1384
2017-07-16T04:25:42.312Z,1400
2017-07-16T04:26:08.532Z,1416
2017-07-16T04:26:34.728Z,1420
2017-07-16T04:27:00.908Z,1424
2017-07-16T04:27:27.089Z,1420
2017-07-16T04:27:53.287Z,1408
2017-07-16T04:28:19.466Z,1388
2017-07-16T04:28:45.644Z,1368
2017-07-16T04:29:11.837Z,1348
2017-07-16T04:29:38.024Z,1328
2017-07-16T04:30:04.202Z,1308
2017-07-16T04:30:30.398Z,1292
2017-07-16T04:30:56.575Z,1280
2017-07-16T04:31:22.811Z,1276
2017-07-16T04:31:48.954Z,1280
2017-07-16T04:32:15.131Z,1284
2017-07-16T04:32:41.330Z,1292
2017-07-16T04:33:07.511Z,1308
2017-07-16T04:33:33.691Z,1328
2017-07-16T04:33:59.882Z,1348
2017-07-16T04:34:26.070Z,1380
2017-07-16T04:34:52.249Z,1408
2017-07-16T04:35:18.442Z,1440
2017-07-16T04:35:44.632Z,1476
2017-07-16T04:36:10.814Z,1512
2017-07-16T04:36:36.996Z,1544
2017-07-16T04:37:03.172Z,1572
2017-07-16T04:37:29.368Z,1588
2017-07-16T04:37:55.555Z,1608
2017-07-16T04:38:21.697Z,1624
2017-07-16T04:38:47.841Z,1632
2017-07-16T04:39:13.995Z,1644
2017-07-16T04:39:40.126Z,1656
2017-07-16T04:40:06.273Z,1676
2017-07-16T04:40:32.422Z,1696
2017-07-16T04:40:58.559Z,1732
2017-07-16T04:41:24.714Z,1772
2017-07-16T04:41:50.849Z,1816
2017-07-16T04:42:16.999Z,1860
2017-07-16T04:42:43.149Z,1904
2017-07-16T04:43:09.281Z,1952
2017-07-16T04:43:35.433Z,2000
2017-07-16T04:44:01.571Z,2048
2017-07-16T04:44:27.708Z,2096
2017-07-16T04:44:53.849Z,2144
2017-07-16T04:45:19.997Z,2184
2017-07-16T04:45:46.134Z,2220
2017-07-16T04:46:12.271Z,2252
2017-07-16T04:46:38.425Z,2284
2017-07-16T04:47:04.594Z,2312
2017-07-16T04:47:30.737Z,2344
2017-07-16T04:47:56.879Z,2376
2017-07-16T04:48:23.014Z,2404
2017-07-16T04:48:49.192Z,2440
2017-07-16T04:49:15.328Z,2464
2017-07-16T04:49:41.467Z,2488
2017-07-16T04:50:07.618Z,2496
2017-07-16T04:50:33.758Z,2508
2017-07-16T04:50:59.893Z,2508
2017-07-16T04:51:26.042Z,2508
2017-07-16T04:51:52.185Z,2496
2017-07-16T04:52:18.325Z,2480
2017-07-16T04:52:44.475Z,2460
2017-07-16T04:53:10.632Z,2436
2017-07-16T04:53:36.788Z,2408
2017-07-16T04:54:02.928Z,2384
2017-07-16T04:54:29.065Z,2356
2017-07-16T04:54:55.214Z,2340
2017-07-16T04:55:21.360Z,2328
2017-07-16T04:55:47.492Z,2316
2017-07-16T04:56:13.640Z,2312
2017-07-16T04:56:39.790Z,2324
2017-07-16T04:57:05.920Z,2336
2017-07-16T04:57:32.061Z,2348
2017-07-16T04:57:58.214Z,2368
2017-07-16T04:58:24.351Z,2388
2017-07-16T04:58:50.513Z,2408
2017-07-16T04:59:16.632Z,2428
2017-07-16T04:59:42.778Z,2452
2017-07-16T05:00:08.930Z,2480
2017-07-16T05:00:35.060Z,2508
2017-07-16T05:01:01.207Z,2540
2017-07-16T05:01:27.357Z,2560
2017-07-16T05:01:53.494Z,2580
2017-07-16T05:02:19.638Z,2584
2017-07-16T05:02:45.789Z,2588
2017-07-16T05:03:11.926Z,2592
2017-07-16T05:03:38.060Z,2596
2017-07-16T05:04:04.216Z,2592
2017-07-16T05:04:30.357Z,2592
2017-07-16T05:04:56.494Z,2584
2017-07-16T05:05:22.651Z,2576
2017-07-16T05:05:48.792Z,2564
2017-07-16T05:06:14.925Z,2556
2017-07-16T05:06:41.071Z,2548
2017-07-16T05:07:07.227Z,2556
2017-07-16T05:07:33.356Z,2572
2017-07-16T05:07:59.499Z,2600
2017-07-16T05:08:25.651Z,2640
2017-07-16T05:08:51.789Z,2684
2017-07-16T05:09:17.931Z,2740
2017-07-16T05:09:44.073Z,2804
2017-07-16T05:10:10.221Z,2864
2017-07-16T05:10:36.373Z,2928
2017-07-16T05:11:02.506Z,2996
2017-07-16T05:11:28.652Z,3068
2017-07-16T05:11:54.805Z,3108
2017-07-16T05:12:20.938Z,3140
2017-07-16T05:12:47.077Z,3176
2017-07-16T05:13:13.231Z,3224
2017-07-16T05:13:39.373Z,3284
2017-07-16T05:14:05.507Z,3344
2017-07-16T05:14:31.670Z,3420
2017-07-16T05:14:57.802Z,3496
2017-07-16T05:15:23.954Z,3568
2017-07-16T05:15:50.090Z,3632
2017-07-16T05:16:16.232Z,3680
2017-07-16T05:16:42.382Z,3712
2017-07-16T05:17:08.523Z,3736
2017-07-16T05:17:34.657Z,3748
2017-07-16T05:18:00.815Z,3748
2017-07-16T05:18:26.958Z,3728
2017-07-16T05:18:53.093Z,3700
2017-07-16T05:19:19.248Z,3668
2017-07-16T05:19:45.394Z,3628
2017-07-16T05:20:11.526Z,3580
2017-07-16T05:20:37.691Z,3516
2017-07-16T05:21:03.829Z,3440
2017-07-16T05:21:29.982Z,3348
2017-07-16T05:21:56.125Z,3244
2017-07-16T05:22:22.258Z,3148
2017-07-16T05:22:48.409Z,3056
2017-07-16T05:23:14.556Z,2984
2017-07-16T05:23:40.691Z,2924
2017-07-16T05:24:06.836Z,2872
2017-07-16T05:24:32.987Z,2828
2017-07-16T05:24:59.119Z,2800
2017-07-16T05:25:25.265Z,2784
2017-07-16T05:25:51.418Z,2776
2017-07-16T05:26:17.554Z,2784
2017-07-16T05:26:43.704Z,2800
2017-07-16T05:27:09.838Z,2832
2017-07-16T05:27:35.983Z,2860
2017-07-16T05:28:02.135Z,2876
2017-07-16T05:28:28.268Z,2900
2017-07-16T05:28:54.416Z,2928
2017-07-16T05:29:20.569Z,2948
2017-07-16T05:29:46.704Z,2980
2017-07-16T05:30:12.846Z,3012
2017-07-16T05:30:38.997Z,3044
2017-07-16T05:31:05.132Z,3064
2017-07-16T05:31:31.270Z,3084
2017-07-16T05:31:57.417Z,3112
2017-07-16T05:32:23.564Z,3152
2017-07-16T05:32:49.716Z,3208
2017-07-16T05:33:15.851Z,3248
2017-07-16T05:33:41.990Z,3244
2017-07-16T05:34:08.142Z,3192
2017-07-16T05:34:34.282Z,3124
2017-07-16T05:35:00.417Z,3036
2017-07-16T05:35:26.571Z,2940
2017-07-16T05:35:52.712Z,2832
2017-07-16T05:36:18.849Z,2724
2017-07-16T05:36:45.032Z,2640
2017-07-16T05:37:11.147Z,2584
2017-07-16T05:37:37.287Z,2536
2017-07-16T05:38:03.426Z,2472
2017-07-16T05:38:29.562Z,2404
2017-07-16T05:38:55.718Z,2328
2017-07-16T05:39:21.859Z,2256
2017-07-16T05:39:47.993Z,2172
2017-07-16T05:40:14.147Z,2076
2017-07-16T05:40:40.294Z,1988
2017-07-16T05:41:06.430Z,1912
2017-07-16T05:41:32.577Z,1880
2017-07-16T05:41:58.729Z,1884
2017-07-16T05:42:24.861Z,1916
2017-07-16T05:42:51.005Z,1968
2017-07-16T05:43:17.147Z,2028
2017-07-16T05:43:43.300Z,2112
2017-07-16T05:44:09.445Z,2200
2017-07-16T05:44:35.580Z,2288
2017-07-16T05:45:01.727Z,2380
2017-07-16T05:45:27.880Z,2464
2017-07-16T05:45:54.012Z,2556
2017-07-16T05:46:20.159Z,2656
2017-07-16T05:46:46.312Z,2752
2017-07-16T05:47:12.445Z,2840
2017-07-16T05:47:38.584Z,2916
2017-07-16T05:48:04.738Z,3000
2017-07-16T05:48:30.880Z,3088
2017-07-16T05:48:57.013Z,3192
2017-07-16T05:49:23.164Z,3312
2017-07-16T05:49:49.307Z,3460
2017-07-16T05:50:15.440Z,3592
2017-07-16T05:50:41.600Z,3676
2017-07-16T05:51:07.740Z,3728
2017-07-16T05:51:33.874Z,3756
2017-07-16T05:52:00.022Z,3776
2017-07-16T05:52:26.174Z,3844
2017-07-16T05:52:52.307Z,3984
2017-07-16T05:53:18.453Z,4136
2017-07-16T05:53:44.607Z,4224
2017-07-16T05:54:10.740Z,4224
2017-07-16T05:54:36.886Z,4168
2017-07-16T05:55:03.022Z,4112
2017-07-16T05:55:29.174Z,4080
2017-07-16T05:55:55.322Z,4080
2017-07-16T05:56:21.453Z,4072
2017-07-16T05:56:47.593Z,4056
2017-07-16T05:57:13.747Z,4052
2017-07-16T05:57:39.881Z,4080
2017-07-16T05:58:06.026Z,4160
2017-07-16T05:58:32.180Z,4280
2017-07-16T05:58:58.313Z,4404
2017-07-16T05:59:24.448Z,4480
2017-07-16T05:59:50.598Z,4496
2017-07-16T06:00:16.742Z,4492
2017-07-16T06:00:42.890Z,4484
2017-07-16T06:01:09.029Z,4480
2017-07-16T06:01:35.173Z,4468
2017-07-16T06:02:01.324Z,4456
2017-07-16T06:02:27.463Z,4436
2017-07-16T06:02:53.601Z,4404
2017-07-16T06:03:19.753Z,4364
2017-07-16T06:03:45.897Z,4348
2017-07-16T06:04:12.031Z,4340
2017-07-16T06:04:38.184Z,4312
2017-07-16T06:05:04.329Z,4308
2017-07-16T06:05:30.475Z,4348
2017-07-16T06:05:56.610Z,4424
2017-07-16T06:06:22.746Z,4496
2017-07-16T06:06:48.899Z,4532
2017-07-16T06:07:15.039Z,4596
2017-07-16T06:07:41.175Z,4684
2017-07-16T06:08:07.326Z,4744
2017-07-16T06:08:33.470Z,4760
2017-07-16T06:08:59.605Z,4748
2017-07-16T06:09:25.753Z,4792
2017-07-16T06:09:51.903Z,4872